Flight Track Log - Related Links

Times and Time Zones

All times are in EDT time to prevent confusion due to time zone crossing. See the SAS944 flight status page for this flight to view local times or setup timezone preferences in your user account.

Time Position Orientation Groundspeed Altitude Reporting Facility
EDT Latitude Longitude Course Direction KTS MPH feet Rate Location/Type
Mon 11:24:26 PM 41.9710 -87.9230 289° West  Level FlightAware ADS-B
Mon 11:24:54 PM 41.9700 -87.9250 236° Southwest 684 Level FlightAware ADS-B
Mon 11:25:33 PM 41.9700 -87.9290 270° West 690 Level FlightAware ADS-B
Mon 11:25:49 PM 41.9700 -87.9310 270° West 699 Level FlightAware ADS-B
Mon 11:26:41 PM 41.9690 -87.9310 180° South 703 Level FlightAware ADS-B
Mon 11:28:03 PM 41.9690 -87.9200 90° East 716 Level FlightAware ADS-B
Mon 11:28:31 PM 41.9690 -87.8950 90° East 800 736 Climbing FlightAware ADS-B
Mon 11:29:11 PM 41.9790 -87.8620 68° East 1,800 726 Climbing FlightAware ADS-B
Mon 11:30:11 PM 42.0190 -87.8260 34° Northeast 2,900 715 Climbing FlightAware ADS-B
Mon 11:30:53 PM 42.0470 -87.8000 35° Northeast 3,600 707 Climbing FlightAware ADS-B
Mon 11:31:33 PM 42.0780 -87.7710 35° Northeast 4,200 702 Climbing FlightAware ADS-B
Mon 11:32:08 PM 42.1100 -87.7590 16° North 4,500 699 Climbing FlightAware ADS-B
Mon 11:32:31 PM 42.1380 -87.7590 360° North 4,800 702 Climbing FlightAware ADS-B
Mon 11:32:54 PM 42.1690 -87.7590 360° North 5,300 701 Climbing FlightAware ADS-B
Mon 11:33:16 PM 42.1990 -87.7600 359° North 6,200 696 Climbing FlightAware ADS-B
Mon 11:33:43 PM 42.2340 -87.7600 360° North 7,300 680 Climbing FlightAware ADS-B
Mon 11:34:12 PM 42.2730 -87.7590 North 8,500 661 Climbing FlightAware ADS-B
Mon 11:34:38 PM 42.3090 -87.7580 North 9,500 640 Climbing FlightAware ADS-B
Mon 11:35:24 PM 42.3730 -87.7470 North 10,600 622 Climbing FlightAware ADS-B
Mon 11:36:04 PM 42.4330 -87.7150 21° North 11,200 607 Climbing FlightAware ADS-B
Mon 11:36:45 PM 42.4970 -87.6800 22° Northeast 12,700 602 Climbing FlightAware ADS-B
Mon 11:37:28 PM 42.5670 -87.6420 22° Northeast 14,200 574 Climbing FlightAware ADS-B
Mon 11:38:10 PM 42.6340 -87.6060 22° Northeast 15,800 545 Climbing FlightAware ADS-B
Mon 11:38:54 PM 42.6990 -87.5490 33° Northeast 16,900 513 Climbing FlightAware ADS-B
Mon 11:39:06 PM 42.7090 -87.5200 65° Northeast 17,200 493 Climbing FlightAware ADS-B
Mon 11:39:46 PM 42.7240 -87.4170 79° East 18,400 488 Climbing FlightAware ADS-B
Mon 11:40:30 PM 42.7390 -87.3020 80° East 19,900 463 Climbing FlightAware ADS-B
Mon 11:41:10 PM 42.7530 -87.1980 80° East 20,900 430 Climbing FlightAware ADS-B
Mon 11:41:54 PM 42.7690 -87.0770 80° East 21,800 409 Climbing FlightAware ADS-B
Mon 11:42:35 PM 42.7840 -86.9590 80° East 22,800 392 Climbing FlightAware ADS-B
Mon 11:43:20 PM 42.8000 -86.8350 80° East 23,900 370 Climbing FlightAware ADS-B
Mon 11:43:59 PM 42.8150 -86.7220 80° East 24,700 344 Climbing FlightAware ADS-B
Mon 11:44:39 PM 42.8300 -86.6050 80° East 25,700 326 Climbing FlightAware ADS-B
Mon 11:45:23 PM 42.8460 -86.4790 80° East 26,500 300 Climbing FlightAware ADS-B
Mon 11:46:07 PM 42.8620 -86.3480 80° East 27,100 281 Climbing FlightAware ADS-B
Mon 11:46:45 PM 42.8760 -86.2340 80° East 27,700 268 Climbing FlightAware ADS-B
Mon 11:47:32 PM 42.8940 -86.0940 80° East 28,400 253 Climbing FlightAware ADS-B
Mon 11:48:12 PM 42.9090 -85.9690 81° East 29,000 235 Climbing FlightAware ADS-B
Mon 11:48:51 PM 42.9240 -85.8430 81° East 29,600 219 Climbing FlightAware ADS-B
Mon 11:49:35 PM 42.9410 -85.7030 81° East 30,500 202 Climbing FlightAware ADS-B
Mon 11:50:20 PM 42.9570 -85.5650 81° East 31,300 173 Climbing FlightAware ADS-B
Mon 11:50:59 PM 42.9720 -85.4420 80° East 31,900 146 Climbing FlightAware ADS-B
Mon 11:51:39 PM 42.9870 -85.3140 81° East 32,400 126 Climbing FlightAware ADS-B
Mon 11:52:26 PM 43.0030 -85.1680 81° East 33,000 109 Climbing FlightAware ADS-B
Mon 11:53:05 PM 43.0180 -85.0370 81° East 33,000 86 Level FlightAware ADS-B
Mon 11:53:49 PM 43.0350 -84.8910 81° East 33,000 89 Level FlightAware ADS-B
Mon 11:54:31 PM 43.0500 -84.7520 82° East 33,000 92 Level FlightAware ADS-B
Mon 11:55:14 PM 43.0660 -84.6080 81° East 33,000 95 Level FlightAware ADS-B
Mon 11:55:55 PM 43.0810 -84.4710 81° East 33,000 98 Level FlightAware ADS-B
Mon 11:56:36 PM 43.0960 -84.3310 82° East 33,000 102 Level FlightAware ADS-B
Mon 11:57:16 PM 43.1100 -84.1940 82° East 33,000 105 Level FlightAware ADS-B
Mon 11:57:59 PM 43.1250 -84.0490 82° East 33,000 109 Level FlightAware ADS-B
Mon 11:58:44 PM 43.1410 -83.8960 82° East 33,100 114 Climbing FlightAware ADS-B
Mon 11:59:25 PM 43.1550 -83.7590 82° East 33,800 113 Climbing FlightAware ADS-B
Tue 12:00:04 AM 43.1690 -83.6260 82° East 34,300 74 Climbing FlightAware ADS-B
Tue 12:00:48 AM 43.1830 -83.4820 82° East 34,800 45 Climbing FlightAware ADS-B
Tue 12:01:28 AM 43.1970 -83.3410 82° East 35,000 14 Climbing FlightAware ADS-B
Tue 12:02:12 AM 43.2110 -83.1920 83° East 35,000  Level FlightAware ADS-B
Tue 12:02:51 AM 43.2230 -83.0670 82° East 35,000  Level FlightAware ADS-B
Tue 12:03:37 AM 43.2400 -82.9110 81° East 35,000  Level FlightAware ADS-B
Tue 12:04:15 AM 43.2640 -82.7830 76° East 35,000  Level FlightAware ADS-B
Tue 12:04:56 AM 43.2890 -82.6900 70° East 35,000  Level FlightAware ADS-B
Tue 12:05:39 AM 43.3390 -82.5540 63° Northeast 35,000  Level FlightAware ADS-B
Tue 12:06:19 AM 43.3890 -82.4530 56° Northeast 35,000  Level FlightAware ADS-B
Tue 12:07:03 AM 43.4560 -82.3390 51° Northeast 35,000  Level FlightAware ADS-B
Tue 12:07:56 AM 43.5380 -82.1960 52° Northeast 35,000  Level FlightAware ADS-B
Tue 12:08:45 AM 43.6080 -82.0760 51° Northeast 35,000  Level FlightAware ADS-B
Tue 12:09:17 AM 43.6600 -81.9860 51° Northeast 35,000  Level FlightAware ADS-B
Tue 12:09:58 AM 43.7150 -81.8910 51° Northeast 35,000  Level FlightAware ADS-B
Tue 12:10:40 AM 43.7820 -81.7730 52° Northeast 35,000  Level FlightAware ADS-B
Tue 12:11:27 AM 43.8640 -81.6300 51° Northeast 35,000  Level FlightAware ADS-B
Tue 12:12:04 AM 43.9020 -81.5630 52° Northeast 35,000  Level FlightAware ADS-B
Tue 12:12:47 AM 43.9820 -81.4220 52° Northeast 35,000  Level FlightAware ADS-B
Tue 12:13:32 AM 44.0480 -81.3060 52° Northeast 35,000  Level FlightAware ADS-B
Tue 12:14:13 AM 44.1080 -81.2000 52° Northeast 35,000  Level FlightAware ADS-B
Tue 12:14:54 AM 44.1680 -81.0930 52° Northeast 35,000  Level FlightAware ADS-B
Tue 12:15:36 AM 44.2200 -81.0000 52° Northeast 481 554 35,000  Level FlightAware ADS-B
Tue 12:16:16 AM 44.2780 -80.8960 52° Northeast 481 554 35,000  Level FlightAware ADS-B
Tue 12:17:01 AM 44.3440 -80.7760 52° Northeast 481 554 35,000  Level FlightAware ADS-B
Tue 12:17:41 AM 44.4030 -80.6700 52° Northeast 481 554 35,000  Level FlightAware ADS-B
Tue 12:18:26 AM 44.4680 -80.5520 52° Northeast 480 552 35,000  Level FlightAware ADS-B
Tue 12:19:06 AM 44.5260 -80.4470 52° Northeast 480 552 35,000  Level FlightAware ADS-B
Tue 12:19:46 AM 44.5840 -80.3390 53° Northeast 478 550 35,000  Level FlightAware ADS-B
Tue 12:20:26 AM 44.6420 -80.2330 52° Northeast 478 550 35,000  Level FlightAware ADS-B
Tue 12:21:11 AM 44.7070 -80.1140 52° Northeast 480 552 35,000  Level FlightAware ADS-B
Tue 12:21:51 AM 44.7640 -80.0080 53° Northeast 478 550 35,000  Level FlightAware ADS-B
Tue 12:22:36 AM 44.8290 -79.8870 53° Northeast 482 555 35,000  Level FlightAware ADS-B
Tue 12:23:16 AM 44.8850 -79.7820 53° Northeast 480 552 35,000  Level FlightAware ADS-B
Tue 12:24:01 AM 44.9500 -79.6600 53° Northeast 479 551 35,000  Level FlightAware ADS-B
Tue 12:24:41 AM 45.0070 -79.5540 53° Northeast 477 549 35,000  Level FlightAware ADS-B
Tue 12:25:26 AM 45.0710 -79.4330 53° Northeast 477 549 35,000  Level FlightAware ADS-B
Tue 12:26:06 AM 45.1290 -79.3220 53° Northeast 480 552 35,000  Level FlightAware ADS-B
Tue 12:26:51 AM 45.1920 -79.2010 54° Northeast 482 555 35,000  Level FlightAware ADS-B
Tue 12:27:26 AM 45.2400 -79.1100 53° Northeast 483 556 35,000  Level FlightAware ADS-B
Tue 12:28:11 AM 45.3040 -78.9880 53° Northeast 480 552 35,000  Level FlightAware ADS-B
Tue 12:28:56 AM 45.3680 -78.8640 54° Northeast 478 550 35,000  Level FlightAware ADS-B
Tue 12:29:36 AM 45.4210 -78.7610 54° Northeast 478 550 35,000  Level FlightAware ADS-B
Tue 12:30:16 AM 45.4760 -78.6550 53° Northeast 484 557 35,000  Level FlightAware ADS-B
Tue 12:30:56 AM 45.5340 -78.5420 54° Northeast 480 552 35,000  Level FlightAware ADS-B
Tue 12:31:41 AM 45.5940 -78.4240 54° Northeast 479 551 35,000  Level FlightAware ADS-B
Tue 12:32:26 AM 45.6520 -78.3100 54° Northeast 479 551 35,000  Level FlightAware ADS-B
Tue 12:33:06 AM 45.7100 -78.1950 54° Northeast 478 550 35,000  Level FlightAware ADS-B
Tue 12:33:51 AM 45.7740 -78.0690 54° Northeast 482 555 35,000  Level FlightAware ADS-B
Tue 12:34:31 AM 45.8280 -77.9630 54° Northeast 480 552 35,000  Level FlightAware ADS-B
Tue 12:35:16 AM 45.8880 -77.8430 54° Northeast 478 550 35,000  Level FlightAware ADS-B
Tue 12:35:56 AM 45.9430 -77.7310 55° Northeast 479 551 35,000  Level FlightAware ADS-B
Tue 12:36:36 AM 45.9960 -77.6260 54° Northeast 476 548 35,000  Level FlightAware ADS-B
Tue 12:37:16 AM 46.0500 -77.5160 55° Northeast 479 551 35,000  Level FlightAware ADS-B
Tue 12:37:56 AM 46.1020 -77.4100 55° Northeast 478 550 35,000  Level FlightAware ADS-B
Tue 12:38:41 AM 46.1640 -77.2840 55° Northeast 475 547 35,000  Level FlightAware ADS-B
Tue 12:39:21 AM 46.2160 -77.1780 55° Northeast 476 548 35,000  Level FlightAware ADS-B
Tue 12:40:06 AM 46.2740 -77.0580 55° Northeast 480 552 35,000  Level FlightAware ADS-B
Tue 12:41:02 AM 46.3410 -76.9330 52° Northeast 479 551 35,000  Level FlightAware ADS-B
Tue 12:41:41 AM 46.3990 -76.8010 57° Northeast 478 550 35,000  Level FlightAware ADS-B
Tue 12:42:26 AM 46.4580 -76.6770 55° Northeast 476 548 35,000  Level FlightAware ADS-B
Tue 12:43:26 AM 46.5380 -76.5100 55° Northeast 476 548 35,000  Level FlightAware ADS-B
Tue 12:43:33 AM 46.5080 -76.5720 235° Southwest 478 550 35,000  Level FlightAware ADS-B
Tue 12:43:53 AM 46.5830 -76.4160 55° Northeast 478 550 35,000  Level FlightAware ADS-B
Tue 12:44:34 AM 46.6310 -76.3160 55° Northeast 478 550 35,000  Level FlightAware ADS-B
Tue 12:45:28 AM 46.6790 -76.2120 56° Northeast 479 551 35,000  Level FlightAware ADS-B
Tue 12:46:08 AM 46.7610 -76.0380 55° Northeast 479 551 35,000  Level FlightAware ADS-B
Tue 12:46:55 AM 46.8230 -75.9050 56° Northeast 35,000  Level FlightAware ADS-B
Tue 12:47:35 AM 46.8750 -75.7930 56° Northeast 35,000  Level FlightAware ADS-B
Tue 12:48:28 AM 46.9390 -75.6560 56° Northeast 479 551 35,000 364 Level FlightAware ADS-B
Tue 12:49:14 AM 46.9970 -75.5300 56° Northeast 473 544 35,600 780 Climbing FlightAware ADS-B
Tue 12:50:08 AM 47.0490 -75.4170 56° Northeast 472 543 36,300 424 Climbing FlightAware ADS-B
Tue 12:50:53 AM 47.1080 -75.2870 56° Northeast 472 543 36,300 33 Level FlightAware ADS-B
Tue 12:51:31 AM 47.1680 -75.1550 56° Northeast 37,000 34 Climbing FlightAware ADS-B
Tue 12:52:13 AM 47.2200 -75.0400 56° Northeast 37,000  Level FlightAware ADS-B
Tue 12:53:07 AM 47.2880 -74.8890 56° Northeast 37,000  Level FlightAware ADS-B
Tue 12:53:52 AM 47.3430 -74.7650 57° Northeast 37,000  Level FlightAware ADS-B
Tue 12:54:32 AM 47.3920 -74.6560 56° Northeast 37,000  Level FlightAware ADS-B
Tue 12:55:17 AM 47.4480 -74.5310 56° Northeast 37,000  Level FlightAware ADS-B
Tue 12:55:57 AM 47.4960 -74.4220 57° Northeast 37,000  Level FlightAware ADS-B
Tue 12:56:37 AM 47.5460 -74.3080 57° Northeast 37,000  Level FlightAware ADS-B
Tue 12:57:22 AM 47.6020 -74.1810 57° Northeast 37,000  Level FlightAware ADS-B
Tue 12:58:02 AM 47.6490 -74.0720 57° Northeast 37,000  Level FlightAware ADS-B
Tue 12:58:47 AM 47.7040 -73.9460 57° Northeast 37,000  Level FlightAware ADS-B
Tue 12:59:27 AM 47.7520 -73.8350 57° Northeast 37,000  Level FlightAware ADS-B
Tue 01:00:07 AM 47.7990 -73.7260 57° Northeast 37,000  Level FlightAware ADS-B
Tue 01:00:52 AM 47.8540 -73.6000 57° Northeast 37,000  Level FlightAware ADS-B
Tue 01:01:37 AM 47.9080 -73.4730 58° Northeast 37,000  Level FlightAware ADS-B
Tue 01:02:12 AM 47.9470 -73.3820 57° Northeast 37,000  Level FlightAware ADS-B
Tue 01:03:02 AM 48.0080 -73.2360 58° Northeast 37,000  Level FlightAware ADS-B
Tue 01:03:42 AM 48.0560 -73.1240 57° Northeast 37,000  Level FlightAware ADS-B
Tue 01:04:23 AM 48.1030 -73.0120 58° Northeast 37,000  Level FlightAware ADS-B
Tue 01:05:07 AM 48.1560 -72.8850 58° Northeast 37,000  Level FlightAware ADS-B
Tue 01:05:47 AM 48.2030 -72.7720 58° Northeast 37,000  Level FlightAware ADS-B
Tue 01:06:27 AM 48.2500 -72.6590 58° Northeast 37,000  Level FlightAware ADS-B
Tue 01:07:07 AM 48.2950 -72.5500 58° Northeast 37,000  Level FlightAware ADS-B
Tue 01:07:52 AM 48.3450 -72.4270 59° Northeast 37,000  Level FlightAware ADS-B
Tue 01:08:32 AM 48.3910 -72.3140 58° Northeast 37,000  Level FlightAware ADS-B
Tue 01:09:17 AM 48.4450 -72.1840 58° Northeast 37,000  Level FlightAware ADS-B
Tue 01:10:02 AM 48.4960 -72.0560 59° Northeast 37,000  Level FlightAware ADS-B
Tue 01:10:42 AM 48.5420 -71.9440 58° Northeast 37,000  Level FlightAware ADS-B
Tue 01:11:30 AM 48.5910 -71.8220 59° Northeast 476 548 37,000  Level FlightAware ADS-B
Tue 01:12:17 AM 48.6470 -71.6820 59° Northeast 37,000  Level FlightAware ADS-B
Tue 01:12:57 AM 48.6950 -71.5620 59° Northeast 37,000  Level FlightAware ADS-B
Tue 01:13:52 AM 48.7580 -71.4020 59° Northeast 37,000  Level FlightAware ADS-B
Tue 01:14:32 AM 48.8000 -71.2950 59° Northeast 37,000  Level FlightAware ADS-B
Tue 01:16:15 AM 48.9070 -71.0220 59° Northeast 471 542 37,000  Level FlightAware ADS-B
Tue 01:16:50 AM 48.8830 -71.0820 239° Southwest 475 547 37,000  Level FlightAware ADS-B
Tue 01:17:39 AM 48.8370 -71.2020 240° Southwest 475 547 37,000  Level FlightAware ADS-B
Tue 01:18:15 AM 48.8040 -71.2910 241° Southwest 475 547 37,000  Level FlightAware ADS-B
Tue 01:19:04 AM 48.7580 -71.4110 240° Southwest 475 547 37,000  Level FlightAware ADS-B
Tue 01:19:40 AM 48.7240 -71.4990 240° Southwest 475 547 37,000  Level FlightAware ADS-B
Tue 01:20:28 AM 48.6800 -71.6170 241° Southwest 475 547 37,000  Level FlightAware ADS-B
Tue 01:21:04 AM 48.6460 -71.7050 240° Southwest 475 547 37,000  Level FlightAware ADS-B
Tue 01:21:52 AM 48.6010 -71.8230 240° Southwest 475 547 37,000  Level FlightAware ADS-B
Tue 01:22:28 AM 48.5670 -71.9110 240° Southwest 475 547 37,000  Level FlightAware ADS-B
Tue 01:23:16 AM 48.5230 -72.0280 240° Southwest 475 547 37,000  Level FlightAware ADS-B
Tue 01:23:52 AM 48.4890 -72.1160 240° Southwest 475 547 37,000  Level FlightAware ADS-B
Tue 01:24:40 AM 48.4440 -72.2330 240° Southwest 475 547 37,000  Level FlightAware ADS-B
Tue 01:25:16 AM 48.4110 -72.3210 241° Southwest 475 547 37,000  Level FlightAware ADS-B
Tue 01:26:04 AM 48.3660 -72.4380 240° Southwest 475 547 37,000  Level FlightAware ADS-B
Tue 01:26:40 AM 48.3320 -72.5250 240° Southwest 475 547 37,000  Level FlightAware ADS-B
Tue 01:27:09 AM 49.6167 -69.0833 240° Southwest 470 541 37,000  Level Montreal Center
Tue 01:28:09 AM 49.6667 -68.9167 65° Northeast 470 541 37,000  Level Montreal Center
Tue 01:29:09 AM 49.7333 -68.7167 63° Northeast 470 541 37,000  Level Montreal Center
Tue 01:30:09 AM 49.8000 -68.5500 58° Northeast 470 541 37,000  Level Montreal Center
Tue 01:30:42 AM 49.8333 -68.5000 44° Northeast 480 552 37,000  Level Moncton Center
Tue 01:31:09 AM 49.8667 -68.3667 69° East 480 552 37,000  Level Montreal Center
Tue 01:31:42 AM 49.9000 -68.3167 44° Northeast 480 552 37,000  Level Moncton Center
Tue 01:32:42 AM 49.9667 -68.1167 63° Northeast 470 541 37,000  Level Moncton Center
Tue 01:33:09 AM 49.9833 -68.0333 73° East 470 541 37,000  Level Montreal Center
Tue 01:34:09 AM 50.0500 -67.8333 63° Northeast 470 541 37,000  Level Montreal Center
Tue 01:35:09 AM 50.1000 -67.6667 65° Northeast 470 541 37,000  Level Montreal Center
Tue 01:35:42 AM 50.1500 -67.5833 47° Northeast 480 552 37,000  Level Moncton Center
Tue 01:36:42 AM 50.2000 -67.4000 67° East 480 552 37,000  Level Moncton Center
Tue 01:37:14 AM 50.2500 -67.3000 52° Northeast 480 552 37,000  Level Gander Center
Tue 01:38:14 AM 50.3000 -67.1167 67° East 480 552 37,000  Level Gander Center
Tue 01:38:42 AM 50.3333 -67.0500 52° Northeast 480 552 37,000  Level Moncton Center
Tue 01:39:42 AM 50.4000 -66.8333 64° Northeast 480 552 37,000  Level Moncton Center
Tue 01:40:42 AM 50.4500 -66.6667 65° Northeast 480 552 37,000  Level Moncton Center
Tue 01:41:09 AM 50.4833 -66.5333 69° East 480 552 37,000  Level Montreal Center
Tue 01:42:09 AM 50.5500 -66.3667 58° Northeast 480 552 37,000  Level Montreal Center
Tue 01:43:09 AM 50.6167 -66.1667 62° Northeast 480 552 37,000  Level Montreal Center
Tue 01:44:09 AM 50.6667 -65.9667 68° East 480 552 37,000  Level Montreal Center
Tue 01:45:09 AM 50.7333 -65.7833 60° Northeast 480 552 37,000  Level Montreal Center
Tue 01:45:42 AM 50.7500 -65.7167 68° East 480 552 37,000  Level Moncton Center
Tue 01:46:42 AM 50.8167 -65.5333 60° Northeast 480 552 37,000  Level Moncton Center
Tue 01:47:42 AM 50.8833 -65.3500 60° Northeast 480 552 37,000  Level Moncton Center
Tue 01:48:14 AM 50.9167 -65.2333 66° East 480 552 37,000  Level Gander Center
Tue 01:49:14 AM 50.9833 -65.0500 60° Northeast 480 552 37,000  Level Gander Center
Tue 01:50:14 AM 51.0333 -64.8500 68° East 480 552 37,000  Level Gander Center
Tue 01:51:14 AM 51.0833 -64.6667 66° East 480 552 37,000  Level Gander Center
Tue 01:52:14 AM 51.1500 -64.4833 60° Northeast 480 552 37,000  Level Gander Center
Tue 01:53:14 AM 51.2000 -64.2667 70° East 490 564 37,000  Level Gander Center
Tue 01:54:14 AM 51.2500 -64.0833 66° East 490 564 37,000  Level Gander Center
Tue 01:55:14 AM 51.3333 -63.8833 56° Northeast 490 564 37,000  Level Gander Center
Tue 01:55:42 AM 51.3500 -63.7833 75° East 490 564 37,000  Level Moncton Center
Tue 01:56:14 AM 51.3833 -63.7000 57° Northeast 490 564 37,000  Level Gander Center
Tue 01:57:14 AM 51.4333 -63.4833 70° East 480 552 37,000  Level Gander Center
Tue 01:58:14 AM 51.4833 -63.3000 66° East 480 552 37,000  Level Gander Center
Tue 01:58:42 AM 51.5167 -63.2167 57° Northeast 480 552 37,000  Level Moncton Center
Tue 01:59:14 AM 51.5500 -63.1167 62° Northeast 470 541 37,000  Level Gander Center
Tue 02:00:14 AM 51.6000 -62.9000 70° East 470 541 37,000  Level Gander Center
Tue 02:01:14 AM 51.6500 -62.7167 66° East 470 541 37,000  Level Gander Center
Tue 02:01:42 AM 51.6833 -62.6167 62° Northeast 470 541 37,000  Level Moncton Center
Tue 02:02:14 AM 51.7000 -62.5167 75° East 470 541 37,000  Level Gander Center
Tue 02:03:14 AM 51.7667 -62.3167 62° Northeast 490 564 37,000  Level Gander Center
Tue 02:03:42 AM 51.8000 -62.2000 65° Northeast 490 564 37,000  Level Moncton Center
Tue 02:04:14 AM 51.8167 -62.1167 72° East 490 564 37,000  Level Gander Center
Tue 02:05:14 AM 51.8667 -61.9000 69° East 490 564 37,000  Level Gander Center
Tue 02:05:42 AM 51.8833 -61.8167 72° East 490 564 37,000  Level Moncton Center
Tue 02:06:42 AM 51.9500 -61.6000 63° Northeast 490 564 37,000  Level Moncton Center
Tue 02:07:42 AM 52.0000 -61.4000 68° East 490 564 37,000  Level Moncton Center
Tue 02:08:42 AM 52.0667 -61.1833 63° Northeast 490 564 37,000  Level Moncton Center
Tue 02:09:42 AM 52.1000 -61.0000 73° East 490 564 37,000  Level Moncton Center
Tue 02:10:42 AM 52.1667 -60.8000 61° Northeast 490 564 37,000  Level Moncton Center
Tue 02:11:42 AM 52.2333 -60.5667 65° Northeast 490 564 37,000  Level Moncton Center
Tue 02:12:42 AM 52.2667 -60.3833 73° East 490 564 37,000  Level Moncton Center
Tue 02:13:14 AM 52.3000 -60.2667 65° Northeast 490 564 37,000  Level Gander Center
Tue 02:14:14 AM 52.3667 -60.0833 59° Northeast 490 564 37,000  Level Gander Center
Tue 02:15:14 AM 52.4333 -59.8833 61° Northeast 500 575 37,000  Level Gander Center
Tue 02:16:14 AM 52.5000 -59.6667 63° Northeast 490 564 37,000  Level Gander Center
Tue 02:17:14 AM 52.5667 -59.4667 61° Northeast 500 575 37,000  Level Gander Center
Tue 02:18:14 AM 52.6333 -59.2667 61° Northeast 500 575 37,000  Level Gander Center
Tue 02:19:14 AM 52.6833 -59.0500 69° East 500 575 37,000  Level Gander Center
Tue 02:20:14 AM 52.7500 -58.8500 61° Northeast 500 575 37,000  Level Gander Center
Tue 02:21:14 AM 52.8167 -58.6500 61° Northeast 500 575 37,000  Level Gander Center
Tue 02:22:14 AM 52.8833 -58.4500 61° Northeast 500 575 37,000  Level Gander Center
Tue 02:22:42 AM 52.9000 -58.3500 75° East 500 575 37,000  Level Moncton Center
Tue 02:23:42 AM 52.9667 -58.1167 65° Northeast 500 575 37,000  Level Moncton Center
Tue 02:24:14 AM 53.0000 -58.0333 56° Northeast 500 575 37,000  Level Gander Center
Tue 02:25:14 AM 53.0667 -57.8000 64° Northeast 500 575 37,000  Level Gander Center
Tue 02:26:14 AM 53.1167 -57.6000 67° East 510 587 37,000  Level Gander Center
Tue 02:27:14 AM 53.1833 -57.4000 61° Northeast 510 587 37,000  Level Gander Center
Tue 02:28:14 AM 53.2500 -57.1667 64° Northeast 510 587 37,000  Level Gander Center
Tue 02:29:14 AM 53.3000 -56.9667 67° East 510 587 37,000  Level Gander Center
Tue 02:29:42 AM 53.3500 -56.8500 54° Northeast 510 587 37,000  Level Moncton Center
Tue 02:30:24 AM 53.3833 -56.7167 67° East 510 587 37,000  Level Gander Center
Tue 02:31:24 AM 53.4333 -56.4833 70° East 510 587 37,000  Level Gander Center
Tue 02:32:14 AM 53.5000 -56.3000 59° Northeast 510 587 37,000  Level Gander Center
Tue 02:33:14 AM 53.5500 -56.1000 67° East 510 587 37,000  Level Gander Center
Tue 02:34:14 AM 53.6167 -55.8667 64° Northeast 510 587 37,000  Level Gander Center
Tue 02:34:42 AM 53.6167 -55.7833 90° East 510 587 37,000  Level Moncton Center
Tue 02:35:14 AM 53.6667 -55.6667 54° Northeast 510 587 37,000  Level Gander Center
Tue 02:36:14 AM 53.7167 -55.4333 70° East 510 587 37,000  Level Gander Center
Tue 02:36:42 AM 53.7500 -55.3333 61° Northeast 520 598 37,000  Level Moncton Center
Tue 02:37:14 AM 53.7833 -55.2167 64° Northeast 520 598 37,000  Level Gander Center
Tue 02:37:42 AM 53.8167 -55.1000 64° Northeast 520 598 37,000  Level Moncton Center
Tue 02:38:14 AM 53.8333 -55.0167 71° East 510 587 37,000  Level Gander Center
Tue 02:39:14 AM 53.9000 -54.7833 64° Northeast 510 587 37,000  Level Gander Center
Tue 02:40:14 AM 53.9500 -54.5500 70° East 520 598 37,000  Level Gander Center
Tue 02:41:14 AM 54.0167 -54.3000 66° East 520 598 37,000  Level Gander Center
Tue 02:42:14 AM 54.0500 -54.1333 71° East 520 598 37,000  Level Gander Center
Tue 02:43:14 AM 54.1167 -53.8833 65° Northeast 520 598 37,000  Level Gander Center
Tue 02:44:14 AM 54.1667 -53.6500 70° East 520 598 37,000  Level Gander Center
Tue 02:45:14 AM 54.2333 -53.4333 62° Northeast 520 598 37,000  Level Gander Center
Tue 02:46:14 AM 54.2833 -53.2000 70° East 520 598 37,000  Level Gander Center
Tue 02:47:14 AM 54.3333 -52.9500 71° East 520 598 37,000  Level Gander Center
Tue 02:48:14 AM 54.3833 -52.7500 67° East 520 598 37,000  Level Gander Center
Tue 02:49:14 AM 54.4333 -52.5000 71° East 520 598 37,000  Level Gander Center
Tue 02:50:14 AM 54.4833 -52.2667 70° East 520 598 37,000  Level Gander Center
Tue 02:51:14 AM 54.5500 -52.0500 62° Northeast 520 598 37,000  Level Gander Center
Tue 02:52:14 AM 54.5833 -51.8000 77° East 520 598 37,000  Level Gander Center
Tue 02:53:14 AM 54.6500 -51.5500 65° Northeast 530 610 37,000  Level Gander Center
Tue 02:54:14 AM 54.7000 -51.3333 68° East 530 610 37,000  Level Gander Center
Tue 02:55:14 AM 54.7500 -51.1000 70° East 530 610 37,000  Level Gander Center
Tue 02:56:14 AM 54.8000 -50.8500 71° East 530 610 37,000  Level Gander Center
Tue 02:57:14 AM 54.8167 -50.5833 84° East 530 610 37,000  Level Gander Center
Tue 02:58:14 AM 54.9000 -50.3500 58° Northeast 540 621 37,000  Level Gander Center
Tue 02:59:14 AM 54.9500 -50.1000 71° East 540 621 37,000 13 Level Gander Center
Tue 03:01:00 AM 55.0680 -49.7293 66° East  Level FlightAware Approximate
Tue 03:08:00 AM 55.4385 -48.1927 66° East  Level FlightAware Approximate
Tue 03:09:00 AM 55.4898 -47.9709 68° East  Level FlightAware Approximate
Tue 03:10:00 AM 55.5408 -47.7484 68° East  Level FlightAware Approximate
Tue 03:11:00 AM 55.5913 -47.5254 68° East  Level FlightAware Approximate
Tue 03:12:00 AM 55.6414 -47.3019 68° East  Level FlightAware Approximate
Tue 03:13:00 AM 55.6912 -47.0777 68° East  Level FlightAware Approximate
Tue 03:14:00 AM 55.7405 -46.8530 69° East  Level FlightAware Approximate
Tue 03:15:00 AM 55.7894 -46.6277 69° East  Level FlightAware Approximate
Tue 03:16:00 AM 55.8379 -46.4019 69° East  Level FlightAware Approximate
Tue 03:17:00 AM 55.8859 -46.1755 69° East  Level FlightAware Approximate
Tue 03:18:00 AM 55.9336 -45.9485 69° East  Level FlightAware Approximate
Tue 03:19:00 AM 55.9808 -45.7210 70° East  Level FlightAware Approximate
Tue 03:20:00 AM 56.0277 -45.4929 70° East  Level FlightAware Approximate
Tue 03:21:00 AM 56.0741 -45.2643 70° East  Level FlightAware Approximate
Tue 03:22:00 AM 56.1200 -45.0351 70° East  Level FlightAware Approximate
Tue 03:23:00 AM 56.1656 -44.8054 70° East  Level FlightAware Approximate
Tue 03:24:00 AM 56.2107 -44.5752 71° East  Level FlightAware Approximate
Tue 03:25:00 AM 56.2554 -44.3444 71° East  Level FlightAware Approximate
Tue 03:26:00 AM 56.2996 -44.1130 71° East  Level FlightAware Approximate
Tue 03:27:00 AM 56.3435 -43.8812 71° East  Level FlightAware Approximate
Tue 03:28:00 AM 56.3869 -43.6488 71° East  Level FlightAware Approximate
Tue 03:29:00 AM 56.4298 -43.4158 71° East  Level FlightAware Approximate
Tue 03:30:00 AM 56.4724 -43.1824 72° East  Level FlightAware Approximate
Tue 03:31:00 AM 56.5145 -42.9484 72° East  Level FlightAware Approximate
Tue 03:32:00 AM 56.5561 -42.7139 72° East  Level FlightAware Approximate
Tue 03:33:00 AM 56.5973 -42.4789 72° East  Level FlightAware Approximate
Tue 03:34:00 AM 56.6381 -42.2434 72° East  Level FlightAware Approximate
Tue 03:35:00 AM 56.6784 -42.0074 73° East  Level FlightAware Approximate
Tue 03:36:00 AM 56.7183 -41.7708 73° East  Level FlightAware Approximate
Tue 03:37:00 AM 56.7577 -41.5338 73° East  Level FlightAware Approximate
Tue 03:38:00 AM 56.7966 -41.2963 73° East  Level FlightAware Approximate
Tue 03:39:00 AM 56.8352 -41.0583 73° East  Level FlightAware Approximate
Tue 03:40:00 AM 56.8732 -40.8198 74° East  Level FlightAware Approximate
Tue 03:41:00 AM 56.9108 -40.5808 74° East  Level FlightAware Approximate
Tue 03:42:00 AM 56.9480 -40.3413 74° East  Level FlightAware Approximate
Tue 03:43:00 AM 56.9847 -40.1014 74° East  Level FlightAware Approximate
Tue 03:44:00 AM 57.0191 -39.8602 76° East  Level FlightAware Approximate
Tue 03:45:00 AM 57.0519 -39.6179 76° East  Level FlightAware Approximate
Tue 03:46:00 AM 57.0841 -39.3751 76° East  Level FlightAware Approximate
Tue 03:47:00 AM 57.1159 -39.1320 76° East  Level FlightAware Approximate
Tue 03:48:00 AM 57.1472 -38.8884 77° East  Level FlightAware Approximate
Tue 03:49:00 AM 57.1781 -38.6444 77° East  Level FlightAware Approximate
Tue 03:50:00 AM 57.2084 -38.4000 77° East  Level FlightAware Approximate
Tue 03:51:00 AM 57.2383 -38.1553 77° East  Level FlightAware Approximate
Tue 03:52:00 AM 57.2677 -37.9101 77° East  Level FlightAware Approximate
Tue 03:53:00 AM 57.2967 -37.6645 78° East  Level FlightAware Approximate
Tue 03:54:00 AM 57.3251 -37.4186 78° East  Level FlightAware Approximate
Tue 03:55:00 AM 57.3533 -37.1723 77° East  Level FlightAware Approximate
Tue 03:56:00 AM 57.3827 -36.9264 77° East  Level FlightAware Approximate
Tue 03:57:00 AM 57.4116 -36.6800 78° East  Level FlightAware Approximate
Tue 03:58:00 AM 57.4400 -36.4333 78° East  Level FlightAware Approximate
Tue 03:59:00 AM 57.4679 -36.1862 78° East  Level FlightAware Approximate
Tue 04:00:00 AM 57.4954 -35.9387 78° East  Level FlightAware Approximate
Tue 04:01:00 AM 57.5223 -35.6908 78° East  Level FlightAware Approximate
Tue 04:02:00 AM 57.5488 -35.4426 79° East  Level FlightAware Approximate
Tue 04:03:00 AM 57.5748 -35.1940 79° East  Level FlightAware Approximate
Tue 04:04:00 AM 57.6003 -34.9451 79° East  Level FlightAware Approximate
Tue 04:05:00 AM 57.6253 -34.6958 79° East  Level FlightAware Approximate
Tue 04:06:00 AM 57.6498 -34.4462 79° East  Level FlightAware Approximate
Tue 04:07:00 AM 57.6738 -34.1962 80° East  Level FlightAware Approximate
Tue 04:08:00 AM 57.6974 -33.9460 80° East  Level FlightAware Approximate
Tue 04:09:00 AM 57.7204 -33.6954 80° East  Level FlightAware Approximate
Tue 04:10:00 AM 57.7429 -33.4444 80° East  Level FlightAware Approximate
Tue 04:11:00 AM 57.7650 -33.1932 81° East  Level FlightAware Approximate
Tue 04:12:00 AM 57.7865 -32.9417 81° East  Level FlightAware Approximate
Tue 04:13:00 AM 57.8076 -32.6898 81° East  Level FlightAware Approximate
Tue 04:14:00 AM 57.8281 -32.4377 81° East  Level FlightAware Approximate
Tue 04:15:00 AM 57.8482 -32.1853 81° East  Level FlightAware Approximate
Tue 04:16:00 AM 57.8677 -31.9326 82° East  Level FlightAware Approximate
Tue 04:17:00 AM 57.8867 -31.6797 82° East  Level FlightAware Approximate
Tue 04:18:00 AM 57.9053 -31.4265 82° East  Level FlightAware Approximate
Tue 04:19:00 AM 57.9233 -31.1730 82° East  Level FlightAware Approximate
Tue 04:20:00 AM 57.9408 -30.9193 82° East  Level FlightAware Approximate
Tue 04:21:00 AM 57.9579 -30.6653 83° East  Level FlightAware Approximate
Tue 04:22:00 AM 57.9744 -30.4111 83° East  Level FlightAware Approximate
Tue 04:23:00 AM 57.9904 -30.1567 83° East  Level FlightAware Approximate
Tue 04:24:00 AM 58.0038 -29.9016 86° East  Level FlightAware Approximate
Tue 04:25:00 AM 58.0134 -29.6458 86° East  Level FlightAware Approximate
Tue 04:26:00 AM 58.0225 -29.3899 86° East  Level FlightAware Approximate
Tue 04:27:00 AM 58.0311 -29.1339 86° East  Level FlightAware Approximate
Tue 04:28:00 AM 58.0391 -28.8777 86° East  Level FlightAware Approximate
Tue 04:29:00 AM 58.0467 -28.6215 87° East  Level FlightAware Approximate
Tue 04:30:00 AM 58.0537 -28.3651 87° East  Level FlightAware Approximate
Tue 04:31:00 AM 58.0602 -28.1087 87° East  Level FlightAware Approximate
Tue 04:32:00 AM 58.0662 -27.8521 87° East  Level FlightAware Approximate
Tue 04:33:00 AM 58.0717 -27.5955 88° East  Level FlightAware Approximate
Tue 04:34:00 AM 58.0767 -27.3388 88° East  Level FlightAware Approximate
Tue 04:35:00 AM 58.0811 -27.0820 88° East  Level FlightAware Approximate
Tue 04:36:00 AM 58.0850 -26.8251 88° East  Level FlightAware Approximate
Tue 04:37:00 AM 58.0885 -26.5682 88° East  Level FlightAware Approximate
Tue 04:38:00 AM 58.0914 -26.3113 89° East  Level FlightAware Approximate
Tue 04:39:00 AM 58.0937 -26.0543 89° East  Level FlightAware Approximate
Tue 04:40:00 AM 58.0956 -25.7973 89° East  Level FlightAware Approximate
Tue 04:41:00 AM 58.0969 -25.5403 89° East  Level FlightAware Approximate
Tue 04:42:00 AM 58.0978 -25.2832 90° East  Level FlightAware Approximate
Tue 04:43:00 AM 58.0981 -25.0262 90° East  Level FlightAware Approximate
Tue 04:44:00 AM 58.0979 -24.7691 90° East  Level FlightAware Approximate
Tue 04:45:00 AM 58.0971 -24.5121 90° East  Level FlightAware Approximate
Tue 04:46:00 AM 58.0959 -24.2551 90° East  Level FlightAware Approximate
Tue 04:47:00 AM 58.0942 -23.9980 91° East  Level FlightAware Approximate
Tue 04:48:00 AM 58.0919 -23.7411 91° East  Level FlightAware Approximate
Tue 04:49:00 AM 58.0891 -23.4841 91° East  Level FlightAware Approximate
Tue 04:50:00 AM 58.0858 -23.2272 91° East  Level FlightAware Approximate
Tue 04:51:00 AM 58.0820 -22.9704 92° East  Level FlightAware Approximate
Tue 04:52:00 AM 58.0776 -22.7136 92° East  Level FlightAware Approximate
Tue 04:53:00 AM 58.0728 -22.4568 92° East  Level FlightAware Approximate
Tue 04:54:00 AM 58.0674 -22.2002 92° East  Level FlightAware Approximate
Tue 04:55:00 AM 58.0615 -21.9436 92° East  Level FlightAware Approximate
Tue 04:56:00 AM 58.0551 -21.6871 93° East  Level FlightAware Approximate
Tue 04:57:00 AM 58.0481 -21.4307 93° East  Level FlightAware Approximate
Tue 04:58:00 AM 58.0407 -21.1745 93° East  Level FlightAware Approximate
Tue 04:59:00 AM 58.0328 -20.9183 93° East  Level FlightAware Approximate
Tue 05:00:00 AM 58.0243 -20.6622 93° East  Level FlightAware Approximate
Tue 05:01:00 AM 58.0153 -20.4063 94° East  Level FlightAware Approximate
Tue 05:02:00 AM 58.0058 -20.1505 94° East  Level FlightAware Approximate
Tue 05:03:00 AM 58.0060 -19.8951 84° East  Level FlightAware Approximate
Tue 05:04:00 AM 58.0203 -19.6401 84° East  Level FlightAware Approximate
Tue 05:05:00 AM 58.0340 -19.3849 84° East  Level FlightAware Approximate
Tue 05:06:00 AM 58.0473 -19.1295 84° East  Level FlightAware Approximate
Tue 05:07:00 AM 58.0600 -18.8739 85° East  Level FlightAware Approximate
Tue 05:08:00 AM 58.0723 -18.6181 85° East  Level FlightAware Approximate
Tue 05:09:00 AM 58.0840 -18.3621 85° East  Level FlightAware Approximate
Tue 05:10:00 AM 58.0952 -18.1060 85° East  Level FlightAware Approximate
Tue 05:11:00 AM 58.1059 -17.8497 85° East  Level FlightAware Approximate
Tue 05:12:00 AM 58.1161 -17.5933 86° East  Level FlightAware Approximate
Tue 05:13:00 AM 58.1257 -17.3367 86° East  Level FlightAware Approximate
Tue 05:14:00 AM 58.1349 -17.0800 86° East  Level FlightAware Approximate
Tue 05:15:00 AM 58.1435 -16.8232 86° East  Level FlightAware Approximate
Tue 05:16:00 AM 58.1516 -16.5662 86° East  Level FlightAware Approximate
Tue 05:17:00 AM 58.1592 -16.3092 87° East  Level FlightAware Approximate
Tue 05:18:00 AM 58.1663 -16.0520 87° East  Level FlightAware Approximate
Tue 05:19:00 AM 58.1728 -15.7947 87° East  Level FlightAware Approximate
Tue 05:20:00 AM 58.1789 -15.5374 87° East  Level FlightAware Approximate
Tue 05:21:00 AM 58.1844 -15.2799 88° East  Level FlightAware Approximate
Tue 05:22:00 AM 58.1894 -15.0224 88° East  Level FlightAware Approximate
Tue 05:23:00 AM 58.1939 -14.7648 88° East  Level FlightAware Approximate
Tue 05:24:00 AM 58.1979 -14.5072 88° East  Level FlightAware Approximate
Tue 05:25:00 AM 58.2013 -14.2495 88° East  Level FlightAware Approximate
Tue 05:26:00 AM 58.2043 -13.9917 89° East  Level FlightAware Approximate
Tue 05:27:00 AM 58.2067 -13.7339 89° East  Level FlightAware Approximate
Tue 05:28:00 AM 58.2086 -13.4761 89° East  Level FlightAware Approximate
Tue 05:29:00 AM 58.2099 -13.2183 89° East  Level FlightAware Approximate
Tue 05:30:00 AM 58.2108 -12.9604 90° East  Level FlightAware Approximate
Tue 05:30:33 AM 56.9110 -9.4100 90° East 37,900  Level FlightAware ADS-B
Tue 05:30:48 AM 56.9020 -9.3480 105° East 38,000 611 Climbing FlightAware ADS-B
Tue 05:31:44 AM 56.8680 -9.1290 106° East 38,600 645 Climbing FlightAware ADS-B
Tue 05:32:21 AM 56.8423 -8.9646 106° East 490 564 39,000 393 Climbing FlightAware UK
Tue 05:32:28 AM 56.8390 -8.9490 106° East 39,000  Level FlightAware ADS-B
Tue 05:32:45 AM 56.8277 -8.8719 106° East 492 566 39,000  Level FlightAware UK
Tue 05:33:03 AM 56.8164 -8.8003 106° East 490 564 39,000 -143 Level FlightAware UK
Tue 05:33:08 AM 56.8140 -8.7890 106° East 39,000 -250 Level FlightAware ADS-B
Tue 05:33:27 AM 56.8015 -8.7059 106° East 494 568 38,900 -162 Descending FlightAware UK
Tue 05:33:45 AM 56.7904 -8.6359 106° East 490 564 38,900 143 Level FlightAware UK
Tue 05:33:53 AM 56.7870 -8.6180 106° East 39,000 250 Climbing FlightAware ADS-B
Tue 05:34:09 AM 56.7756 -8.5432 106° East 492 566 39,000  Level FlightAware UK
Tue 05:34:27 AM 56.7643 -8.4740 107° East 494 568 39,000 -143 Level FlightAware UK
Tue 05:34:33 AM 56.7620 -8.4610 107° East 39,000 -250 Level FlightAware ADS-B
Tue 05:34:51 AM 56.7492 -8.3817 107° East 492 566 38,900 -167 Descending FlightAware UK
Tue 05:35:09 AM 56.7378 -8.3124 107° East 490 564 38,900 167 Level FlightAware UK
Tue 05:35:09 AM 56.7400 -8.3280 107° East 39,000 333 Climbing FlightAware ADS-B
Tue 05:35:27 AM 56.7265 -8.2431 107° East 494 568 39,000  Level FlightAware UK
Tue 05:35:45 AM 56.7151 -8.1739 107° East 492 566 39,000  Level FlightAware UK
Tue 05:35:55 AM 56.7110 -8.1490 107° East 39,000  Level FlightAware ADS-B
Tue 05:36:21 AM 56.6924 -8.0357 107° East 492 566 39,000  Level FlightAware UK
Tue 05:36:39 AM 56.6820 -7.9760 107° East 39,000  Level FlightAware ADS-B
Tue 05:36:57 AM 56.6692 -7.8980 107° East 492 566 39,000  Level FlightAware UK
Tue 05:37:19 AM 56.6570 -7.8250 107° East 39,000  Level FlightAware ADS-B
Tue 05:37:39 AM 56.6423 -7.7374 107° East 492 566 39,000  Level FlightAware UK
Tue 05:37:57 AM 56.6307 -7.6687 107° East 492 566 39,000  Level FlightAware UK
Tue 05:38:04 AM 56.6270 -7.6510 107° East 39,000  Level FlightAware ADS-B
Tue 05:38:21 AM 56.6153 -7.5775 107° East 492 566 39,000  Level FlightAware UK
Tue 05:38:40 AM 56.6035 -7.5085 107° East 492 566 39,000  Level FlightAware UK
Tue 05:38:44 AM 56.6020 -7.5020 107° East 39,000  Level FlightAware ADS-B
Tue 05:39:04 AM 56.5879 -7.4177 107° East 490 564 39,000  Level FlightAware UK
Tue 05:39:22 AM 56.5762 -7.3498 107° East 490 564 39,000  Level FlightAware UK
Tue 05:39:25 AM 56.5760 -7.3520 107° East 39,000  Level FlightAware ADS-B
Tue 05:39:40 AM 56.5644 -7.2821 107° East 490 564 39,000  Level FlightAware UK
Tue 05:39:58 AM 56.5526 -7.2143 107° East 488 562 39,000  Level FlightAware UK
Tue 05:40:09 AM 56.5460 -7.1800 107° East 39,000  Level FlightAware ADS-B
Tue 05:40:28 AM 56.5328 -7.1012 107° East 490 564 39,000  Level FlightAware UK
Tue 05:40:46 AM 56.5210 -7.0331 107° East 490 564 39,000  Level FlightAware UK
Tue 05:40:49 AM 56.5210 -7.0310 107° East 39,000  Level FlightAware ADS-B
Tue 05:41:04 AM 56.5093 -6.9651 107° East 488 562 39,000  Level FlightAware UK
Tue 05:41:22 AM 56.5006 -6.8953 103° East 488 562 39,000  Level FlightAware UK
Tue 05:41:34 AM 56.4960 -6.8540 103° East 39,000  Level FlightAware ADS-B
Tue 05:41:52 AM 56.4918 -6.7777 103° East 490 564 39,000  Level FlightAware UK
Tue 05:42:09 AM 56.4890 -6.7190 103° East 39,000  Level FlightAware ADS-B
Tue 05:42:40 AM 56.4868 -6.5879 103° East 492 566 39,000  Level FlightAware UK
Tue 05:42:54 AM 56.4850 -6.5390 103° East 39,000  Level FlightAware ADS-B
Tue 05:43:16 AM 56.4829 -6.4456 103° East 490 564 39,000  Level FlightAware UK
Tue 05:43:34 AM 56.4808 -6.3745 93° East 490 564 39,000  Level FlightAware UK
Tue 05:43:34 AM 56.4810 -6.3810 93° East 39,000  Level FlightAware ADS-B
Tue 05:43:52 AM 56.4791 -6.3034 93° East 488 562 39,000  Level FlightAware UK
Tue 05:44:10 AM 56.4772 -6.2322 93° East 490 564 39,000  Level FlightAware UK
Tue 05:44:20 AM 56.4760 -6.2020 93° East 39,000  Level FlightAware ADS-B
Tue 05:44:40 AM 56.4737 -6.1128 93° East 490 564 39,000  Level FlightAware UK
Tue 05:44:58 AM 56.4716 -6.0415 93° East 492 566 39,000  Level FlightAware UK
Tue 05:44:59 AM 56.4720 -6.0440 93° East 39,000  Level FlightAware ADS-B
Tue 05:45:34 AM 56.4673 -5.8990 93° East 488 562 39,000  Level FlightAware UK
Tue 05:45:44 AM 56.4660 -5.8630 93° East 39,000  Level FlightAware ADS-B
Tue 05:46:22 AM 56.4615 -5.7091 93° East 494 568 39,000  Level FlightAware UK
Tue 05:46:25 AM 56.4610 -5.7090 93° East 39,000  Level FlightAware ADS-B
Tue 05:47:10 AM 56.4550 -5.5250 93° East 39,000  Level FlightAware ADS-B
Tue 05:47:28 AM 56.4530 -5.4514 93° East 490 564 39,000  Level FlightAware UK
Tue 05:47:45 AM 56.4510 -5.3880 94° East 39,000  Level FlightAware ADS-B
Tue 05:47:52 AM 56.4497 -5.3580 94° East 486 559 39,000  Level FlightAware UK
Tue 05:48:28 AM 56.4447 -5.2171 94° East 484 557 39,000  Level FlightAware UK
Tue 05:48:29 AM 56.4450 -5.2230 94° East 39,000  Level FlightAware ADS-B
Tue 05:48:46 AM 56.4421 -5.1467 94° East 492 566 39,000  Level FlightAware UK
Tue 05:49:04 AM 56.4396 -5.0760 94° East 486 559 39,000  Level FlightAware UK
Tue 05:49:13 AM 56.4390 -5.0580 94° East 39,000  Level FlightAware ADS-B
Tue 05:49:34 AM 56.4351 -4.9578 94° East 492 566 39,000  Level FlightAware UK
Tue 05:49:52 AM 56.4325 -4.8872 94° East 488 562 39,000  Level FlightAware UK
Tue 05:49:56 AM 56.4320 -4.8790 94° East 39,000  Level FlightAware ADS-B
Tue 05:50:16 AM 56.4288 -4.7934 94° East 486 559 39,000  Level FlightAware UK
Tue 05:50:34 AM 56.4259 -4.7224 94° East 492 566 39,000  Level FlightAware UK
Tue 05:50:51 AM 56.4240 -4.6670 94° East 39,000  Level FlightAware ADS-B
Tue 05:50:52 AM 56.4231 -4.6522 94° East 490 564 39,000  Level FlightAware UK
Tue 05:51:10 AM 56.4202 -4.5819 94° East 492 566 39,000  Level FlightAware UK
Tue 05:51:28 AM 56.4174 -4.5117 94° East 490 564 39,000  Level FlightAware UK
Tue 05:51:51 AM 56.4140 -4.4290 94° East 39,000  Level FlightAware ADS-B
Tue 05:52:31 AM 56.4070 -4.2730 95° East 39,000  Level FlightAware ADS-B
Tue 05:52:52 AM 56.4033 -4.1843 95° East 486 559 39,000  Level FlightAware UK
Tue 05:53:12 AM 56.4000 -4.1130 95° East 39,000  Level FlightAware ADS-B
Tue 05:53:28 AM 56.3969 -4.0438 95° East 490 564 39,000  Level FlightAware UK
Tue 05:53:54 AM 56.3930 -3.9530 95° East 39,000  Level FlightAware ADS-B
Tue 05:54:10 AM 56.3894 -3.8796 95° East 490 564 39,000  Level FlightAware UK
Tue 05:54:28 AM 56.3861 -3.8096 95° East 488 562 39,000  Level FlightAware UK
Tue 05:54:37 AM 56.3850 -3.7800 95° East 39,000  Level FlightAware ADS-B
Tue 05:54:52 AM 56.3815 -3.7171 95° East 490 564 39,000  Level FlightAware UK
Tue 05:55:10 AM 56.3782 -3.6489 95° East 488 562 39,000  Level FlightAware UK
Tue 05:55:17 AM 56.3770 -3.6290 95° East 39,000  Level FlightAware ADS-B
Tue 05:55:34 AM 56.3738 -3.5575 95° East 490 564 39,000  Level FlightAware UK
Tue 05:56:02 AM 56.3710 -3.4560 95° East 39,000  Level FlightAware ADS-B
Tue 05:56:28 AM 56.3674 -3.3528 95° East 490 564 39,000  Level FlightAware UK
Tue 05:56:42 AM 56.3660 -3.3090 95° East 39,000  Level FlightAware ADS-B
Tue 05:56:59 AM 56.3632 -3.2390 95° East 486 559 39,000  Level FlightAware UK
Tue 05:57:22 AM 56.3600 -3.1660 94° East 39,000  Level FlightAware ADS-B
Tue 05:57:23 AM 56.3596 -3.1490 94° East 484 557 39,000  Level FlightAware UK
Tue 05:57:47 AM 56.3560 -3.0589 94° East 488 562 39,000  Level FlightAware UK
Tue 05:58:05 AM 56.3533 -2.9914 94° East 482 555 39,000  Level FlightAware UK
Tue 05:58:07 AM 56.3530 -2.9880 94° East 39,000  Level FlightAware ADS-B
Tue 05:58:35 AM 56.3486 -2.8783 94° East 484 557 39,000  Level FlightAware UK
Tue 05:58:47 AM 56.3470 -2.8380 94° East 39,000  Level FlightAware ADS-B
Tue 05:59:17 AM 56.3420 -2.7212 94° East 482 555 39,000  Level FlightAware UK
Tue 05:59:29 AM 56.3400 -2.6840 94° East 39,000  Level FlightAware ADS-B
Tue 06:00:08 AM 56.3340 -2.5380 94° East 39,000  Level FlightAware ADS-B
Tue 06:00:23 AM 56.3311 -2.4728 94° East 474 545 39,000  Level FlightAware UK
Tue 06:00:41 AM 56.3279 -2.4032 95° East 480 552 39,000  Level FlightAware UK
Tue 06:00:53 AM 56.3260 -2.3660 95° East 39,000  Level FlightAware ADS-B
Tue 06:01:11 AM 56.3226 -2.2873 95° East 482 555 39,000  Level FlightAware UK
Tue 06:01:33 AM 56.3190 -2.2150 95° East 39,000  Level FlightAware ADS-B
Tue 06:01:59 AM 56.3142 -2.1070 95° East 478 550 39,000  Level FlightAware UK
Tue 06:02:17 AM 56.3110 -2.0389 95° East 476 548 39,000  Level FlightAware UK
Tue 06:02:18 AM 56.3110 -2.0440 95° East 39,000  Level FlightAware ADS-B
Tue 06:02:41 AM 56.3064 -1.9479 95° East 478 550 39,000  Level FlightAware UK
Tue 06:03:03 AM 56.3030 -1.8730 95° East 39,000  Level FlightAware ADS-B
Tue 06:03:29 AM 56.2971 -1.7624 95° East 482 555 39,000  Level FlightAware UK
Tue 06:03:43 AM 56.2950 -1.7190 95° East 39,000  Level FlightAware ADS-B
Tue 06:03:59 AM 56.2913 -1.6475 95° East 478 550 39,000  Level FlightAware UK
Tue 06:04:23 AM 56.2870 -1.5660 95° East 39,000  Level FlightAware ADS-B
Tue 06:05:00 AM 56.2791 -1.4145 95° East 492 566 39,000  Level FlightAware UK
Tue 06:05:08 AM 56.2780 -1.3900 95° East 39,000  Level FlightAware ADS-B
Tue 06:05:30 AM 56.2727 -1.2975 95° East 488 562 39,000  Level FlightAware UK
Tue 06:05:48 AM 56.2690 -1.2290 96° East 488 562 39,000  Level FlightAware UK
Tue 06:05:48 AM 56.2700 -1.2390 96° East 39,000  Level FlightAware ADS-B
Tue 06:06:12 AM 56.2639 -1.1363 96° East 486 559 39,000  Level FlightAware UK
Tue 06:06:28 AM 56.2610 -1.0840 96° East 39,000  Level FlightAware ADS-B
Tue 06:07:00 AM 56.2534 -0.9517 96° East 484 557 39,000  Level FlightAware UK
Tue 06:07:13 AM 56.2510 -0.9100 96° East 39,000  Level FlightAware ADS-B
Tue 06:07:36 AM 56.2455 -0.8135 96° East 486 559 39,000  Level FlightAware UK
Tue 06:07:53 AM 56.2420 -0.7570 96° East 39,000  Level FlightAware ADS-B
Tue 06:08:12 AM 56.2372 -0.6743 96° East 488 562 39,000  Level FlightAware UK
Tue 06:08:30 AM 56.2331 -0.6059 96° East 488 562 39,000  Level FlightAware UK
Tue 06:08:38 AM 56.2320 -0.5860 96° East 39,000  Level FlightAware ADS-B
Tue 06:08:54 AM 56.2274 -0.5132 96° East 488 562 39,000  Level FlightAware UK
Tue 06:09:18 AM 56.2219 -0.4214 96° East 486 559 39,000  Level FlightAware UK
Tue 06:09:18 AM 56.2220 -0.4310 96° East 39,000  Level FlightAware ADS-B
Tue 06:09:54 AM 56.2134 -0.2843 96° East 486 559 39,000  Level FlightAware UK
Tue 06:10:03 AM 56.2120 -0.2610 96° East 39,000  Level FlightAware ADS-B
Tue 06:10:18 AM 56.2076 -0.1926 96° East 486 559 39,000  Level FlightAware UK
Tue 06:10:43 AM 56.2020 -0.1120 96° East 39,000  Level FlightAware ADS-B
Tue 06:11:21 AM 56.1930 0.0350 96° East 39,000  Level FlightAware ADS-B
Tue 06:11:25 AM 56.1913 0.0569 96° East 486 559 39,000  Level FlightAware UK
Tue 06:12:01 AM 56.1830 0.1760 97° East 39,000  Level FlightAware ADS-B
Tue 06:12:19 AM 56.1779 0.2592 97° East 484 557 39,000  Level FlightAware UK
Tue 06:12:41 AM 56.1730 0.3340 97° East 39,000  Level FlightAware ADS-B
Tue 06:13:01 AM 56.1673 0.4165 97° East 482 555 39,000  Level FlightAware UK
Tue 06:13:37 AM 56.1578 0.5511 97° East 486 559 39,000  Level FlightAware UK
Tue 06:13:41 AM 56.1570 0.5580 97° East 39,000  Level FlightAware ADS-B
Tue 06:14:01 AM 56.1514 0.6417 97° East 484 557 39,000  Level FlightAware UK
Tue 06:14:21 AM 56.1470 0.7070 97° East 39,000  Level FlightAware ADS-B
Tue 06:14:49 AM 56.1385 0.8216 97° East 486 559 39,000  Level FlightAware UK
Tue 06:15:01 AM 56.1360 0.8590 97° East 39,000  Level FlightAware ADS-B
Tue 06:15:07 AM 56.1337 0.8892 97° East 486 559 39,000  Level FlightAware UK
Tue 06:15:19 AM 56.1306 0.9342 97° East 484 557 39,000  Level FlightAware UK
Tue 06:15:43 AM 56.1240 1.0242 97° East 484 557 39,000  Level FlightAware UK
Tue 06:16:01 AM 56.1188 1.0916 98° East 486 559 39,000  Level FlightAware UK
Tue 06:16:01 AM 56.1200 1.0830 98° East 39,000  Level FlightAware ADS-B
Tue 06:16:25 AM 56.1121 1.1815 98° East 484 557 39,000  Level FlightAware UK
Tue 06:16:28 AM 56.1120 1.1770 98° East 39,000  Level FlightAware ADS-B
Tue 06:16:43 AM 56.1069 1.2497 98° East 482 555 39,000  Level FlightAware UK
Tue 06:16:43 AM 56.1080 1.2400 98° East 39,000  Level FlightAware ADS-B
Tue 06:17:13 AM 56.0984 1.3621 98° East 482 555 39,000  Level FlightAware UK
Tue 06:17:23 AM 56.0980 1.3740 98° East 39,000  Level FlightAware ADS-B
Tue 06:17:43 AM 56.0897 1.4747 98° East 482 555 39,000  Level FlightAware UK
Tue 06:18:02 AM 56.0845 1.5432 98° East 484 557 39,000  Level FlightAware UK
Tue 06:18:07 AM 56.0850 1.5320 98° East 39,000  Level FlightAware ADS-B
Tue 06:18:44 AM 56.0719 1.7019 98° East 482 555 39,000  Level FlightAware UK
Tue 06:19:08 AM 56.0645 1.7928 98° East 484 557 39,000  Level FlightAware UK
Tue 06:19:26 AM 56.0591 1.8611 98° East 482 555 39,000  Level FlightAware UK
Tue 06:19:26 AM 56.0600 1.8500 98° East 39,000  Level FlightAware ADS-B
Tue 06:19:44 AM 56.0535 1.9295 98° East 482 555 39,000  Level FlightAware UK
Tue 06:20:02 AM 56.0479 1.9980 98° East 484 557 39,000  Level FlightAware UK
Tue 06:20:20 AM 56.0422 2.0674 98° East 484 557 39,000  Level FlightAware UK
Tue 06:20:21 AM 56.0430 2.0520 98° East 39,000  Level FlightAware ADS-B
Tue 06:20:56 AM 56.0310 2.2049 98° East 484 557 39,000  Level FlightAware UK
Tue 06:21:16 AM 56.0330 2.1760 98° East 39,000  Level FlightAware ADS-B
Tue 06:21:32 AM 56.0193 2.3425 98° East 486 559 39,000  Level FlightAware UK
Tue 06:21:50 AM 56.0134 2.4112 99° East 484 557 39,000  Level FlightAware UK
Tue 06:21:58 AM 56.0130 2.4190 99° East 39,000  Level FlightAware ADS-B
Tue 06:22:14 AM 56.0055 2.5034 99° East 482 555 39,000  Level FlightAware UK
Tue 06:22:32 AM 55.9998 2.5721 98° East 482 555 39,000  Level FlightAware UK
Tue 06:22:41 AM 56.0010 2.5850 98° East 39,000  Level FlightAware ADS-B
Tue 06:23:02 AM 56.0019 2.6891 98° East 484 557 39,000  Level FlightAware UK
Tue 06:23:26 AM 56.0030 2.7828 89° East 484 557 39,000  Level FlightAware UK
Tue 06:23:44 AM 56.0036 2.8533 89° East 486 559 39,000  Level FlightAware UK
Tue 06:23:46 AM 56.0030 2.8260 89° East 39,000  Level FlightAware ADS-B
Tue 06:24:08 AM 56.0042 2.9474 89° East 486 559 39,000  Level FlightAware UK
Tue 06:24:26 AM 56.0048 3.0181 89° East 486 559 39,000  Level FlightAware UK
Tue 06:24:44 AM 56.0052 3.0897 89° East 488 562 39,000  Level FlightAware UK
Tue 06:25:20 AM 56.0061 3.2306 89° East 486 559 39,000  Level FlightAware UK
Tue 06:25:31 AM 56.0060 3.1440 89° East 39,000  Level FlightAware ADS-B
Tue 06:25:50 AM 56.0068 3.3493 89° East 484 557 39,000  Level FlightAware UK
Tue 06:26:11 AM 56.0070 3.4070 89° East 39,000  Level FlightAware ADS-B
Tue 06:26:37 AM 56.0070 3.4920 90° East 39,000  Level FlightAware ADS-B
Tue 06:27:06 AM 56.0080 3.6140 90° East 39,000  Level FlightAware ADS-B
Tue 06:27:08 AM 56.0078 3.6551 90° East 486 559 39,000  Level FlightAware UK
Tue 06:27:51 AM 56.0080 3.8160 90° East 39,000  Level FlightAware ADS-B
Tue 06:28:31 AM 56.0080 3.9740 90° East 39,000  Level FlightAware ADS-B
Tue 06:28:56 AM 56.0077 4.0768 90° East 486 559 39,000  Level FlightAware UK
Tue 06:29:16 AM 56.0080 4.1380 90° East 39,000  Level FlightAware ADS-B
Tue 06:30:21 AM 56.0070 4.3860 90° East 39,000  Level FlightAware ADS-B
Tue 06:31:01 AM 56.0060 4.5480 91° East 39,000  Level FlightAware ADS-B
Tue 06:32:01 AM 56.0050 4.7670 90° East 39,000  Level FlightAware ADS-B
Tue 06:32:41 AM 56.0030 4.9240 91° East 39,000  Level FlightAware ADS-B
Tue 06:33:14 AM 56.0021 5.0730 91° East 486 559 39,000  Level FlightAware UK
Tue 06:33:21 AM 56.0020 5.0880 91° East 39,000  Level FlightAware ADS-B
Tue 06:33:44 AM 56.0010 5.1887 91° East 488 562 39,000  Level FlightAware UK
Tue 06:34:21 AM 55.9990 5.3160 91° East 39,000  Level FlightAware ADS-B
Tue 06:34:51 AM 55.9978 5.4423 91° East 1 1 39,000  Level FlightAware UK
Tue 06:35:01 AM 55.9970 5.4780 91° East 39,000  Level FlightAware ADS-B
Tue 06:35:41 AM 55.9950 5.6290 91° East 39,000  Level FlightAware ADS-B
Tue 06:35:45 AM 55.9944 5.6488 91° East 1 1 39,000  Level FlightAware UK
Tue 06:35:57 AM 55.9935 5.6948 91° East 1 1 39,000  Level FlightAware UK
Tue 06:36:21 AM 55.9924 5.7855 91° East 1 1 39,000  Level FlightAware UK
Tue 06:36:41 AM 55.9930 5.7980 91° East 39,000  Level FlightAware ADS-B
Tue 06:37:21 AM 55.9900 5.9730 92° East 39,000  Level FlightAware ADS-B
Tue 06:38:01 AM 55.9870 6.1450 92° East 39,000  Level FlightAware ADS-B
Tue 06:38:51 AM 55.9829 6.3525 92° East 1 1 39,000  Level FlightAware UK
Tue 06:39:01 AM 55.9820 6.3840 92° East 39,000  Level FlightAware ADS-B
Tue 06:39:41 AM 55.9790 6.5390 92° East 39,000  Level FlightAware ADS-B
Tue 06:40:21 AM 55.9750 6.6890 93° East 39,000  Level FlightAware ADS-B
Tue 06:41:02 AM 55.9720 6.8400 92° East 39,000  Level FlightAware ADS-B
Tue 06:42:02 AM 55.9660 7.0640 93° East 39,000  Level FlightAware ADS-B
Tue 06:42:42 AM 55.9620 7.2240 92° East 39,000  Level FlightAware ADS-B
Tue 06:43:22 AM 55.9580 7.3770 93° East 39,000  Level FlightAware ADS-B
Tue 06:44:24 AM 55.9510 7.6160 93° East 39,000  Level FlightAware ADS-B
Tue 06:45:04 AM 55.9460 7.7690 93° East 39,000  Level FlightAware ADS-B
Tue 06:45:44 AM 55.9410 7.9200 93° East 39,000  Level FlightAware ADS-B
Tue 06:46:25 AM 55.9360 8.0720 93° East 39,000  Level FlightAware ADS-B
Tue 06:47:25 AM 55.9280 8.3000 93° East 39,000  Level FlightAware ADS-B
Tue 06:48:05 AM 55.9230 8.4230 94° East 39,000  Level FlightAware ADS-B
Tue 06:48:45 AM 55.9170 8.5940 94° East 39,000  Level FlightAware ADS-B
Tue 06:49:46 AM 55.9080 8.8180 94° East 38,700 -295 Descending FlightAware ADS-B
Tue 06:50:26 AM 55.9020 8.9690 94° East 38,100 -900 Descending FlightAware ADS-B
Tue 06:51:06 AM 55.8960 9.1170 94° East 37,200 -1,350 Descending FlightAware ADS-B
Tue 06:51:46 AM 55.8890 9.2580 95° East 36,200 -1,500 Descending FlightAware ADS-B
Tue 06:52:46 AM 55.8720 9.4400 99° East 34,800 -1,400 Descending FlightAware ADS-B
Tue 06:53:26 AM 55.8500 9.6170 102° East 33,700 -1,650 Descending FlightAware ADS-B
Tue 06:54:26 AM 55.8240 9.8190 103° East 30,700 -3,000 Descending FlightAware ADS-B
Tue 06:55:06 AM 55.8070 9.9580 102° East 28,900 -2,700 Descending FlightAware ADS-B
Tue 06:55:46 AM 55.7900 10.0900 103° East 27,000 -2,850 Descending FlightAware ADS-B
Tue 06:56:26 AM 55.7730 10.2210 103° East 25,600 -2,100 Descending FlightAware ADS-B
Tue 06:57:26 AM 55.7470 10.4150 103° East 23,100 -2,500 Descending FlightAware ADS-B
Tue 06:58:06 AM 55.7360 10.5030 102° East 21,900 -1,800 Descending FlightAware ADS-B
Tue 06:58:46 AM 55.7160 10.6530 103° East 19,900 -3,000 Descending FlightAware ADS-B
Tue 06:59:46 AM 55.6970 10.7920 104° East 18,300 -1,600 Descending FlightAware ADS-B
Tue 07:00:26 AM 55.6750 10.9580 103° East 16,300 -3,000 Descending FlightAware ADS-B
Tue 07:01:26 AM 55.6520 11.1250 104° East 14,500 -1,800 Descending FlightAware ADS-B
Tue 07:02:07 AM 55.6400 11.2100 104° East 13,400 -1,610 Descending FlightAware ADS-B
Tue 07:02:48 AM 55.6190 11.3570 104° East 11,500 -2,780 Descending FlightAware ADS-B
Tue 07:03:28 AM 55.6050 11.4620 103° East 10,500 -1,500 Descending FlightAware ADS-B
Tue 07:03:48 AM 55.5970 11.5150 105° East 10,000 -1,500 Descending FlightAware ADS-B
Tue 07:04:08 AM 55.5900 11.5680 103° East 9,600 -1,200 Descending FlightAware ADS-B
Tue 07:05:08 AM 55.5690 11.7150 104° East 8,600 -1,000 Descending FlightAware ADS-B
Tue 07:05:48 AM 55.5590 11.7830 105° East 8,000 -900 Descending FlightAware ADS-B
Tue 07:06:08 AM 55.5470 11.8660 104° East 7,200 -2,400 Descending FlightAware ADS-B
Tue 07:06:29 AM 55.5400 11.9150 104° East 6,700 -1,429 Descending FlightAware ADS-B
Tue 07:07:10 AM 55.5250 12.0150 105° East 5,600 -1,610 Descending FlightAware ADS-B
Tue 07:08:10 AM 55.5060 12.1530 104° East 4,600 -1,000 Descending FlightAware ADS-B
Tue 07:08:50 AM 55.5020 12.2340 95° East 4,200 -600 Descending FlightAware ADS-B
Tue 07:09:50 AM 55.4980 12.3370 94° East 3,600 -600 Descending FlightAware ADS-B
Tue 07:10:30 AM 55.4970 12.3950 92° East 2,900 -1,050 Descending FlightAware ADS-B
Tue 07:11:33 AM 55.5040 12.4380 74° East 2,600 -286 Descending FlightAware ADS-B
Tue 07:12:30 AM 55.5410 12.5250 53° Northeast 1,600 -1,053 Descending FlightAware ADS-B
Tue 07:13:13 AM 55.5630 12.5580 40° Northeast 1,000 -837 Descending FlightAware ADS-B
Tue 07:13:53 AM 55.5790 12.5830 41° Northeast 600 -600 Descending FlightAware ADS-B
Tue 07:16:00 AM 55.6167 12.6500 102° East  Level FlightAware Approximate
Tue 07:17:00 AM 55.6179 12.6560 102° East  Level Estimated
Tue 07:18:00 AM 55.6167 12.6500 102° East  Level FlightAware Approximate

Login

Don't have an account? Register now (free) for customized features, flight alerts, and more!